Language: 


Des rapports , des résumés tant et plus, au choix de chacun....


Données Historiques de Météogheer
Journalier Rapport pour Février 28, 2017 Unitée:  Les deux    Impériale   Métrique
Suivant Jour »
Journalier Hebdomadaire Mensuel Annuel Sur mesure
  Max: Min: Moyenne:
Température: 46.9 °F /  8.3 °C 36.9 °F /  2.7 °C 41.2 °F /  5.1 °C
Point de rosée: 43.7 °F /  6.5 °C 32.2 °F /  0.1 °C 37.4 °F /  3 °C
Humidité: 98% 59% 87%
Vent: 26.8mph /  43.1km/h - 10.7mph /  17.3km/h
Rafales: 30.9mph /  49.7km/h - -
Vent- - WSW
Pression: 29.4 in /  995.1 hPa 29.1 in /  986.0 hPa -
Pluie: 0.33 in /  8.4 mm    
Historical Graphs
 
 
Données tabulaires pour Février 28, 2017
Heure Température Point de rosée Pression Vent Vent Rafales Humidité Pluie Taux (Horaire) Conditions
00:04 39.7 °F /  4.3 °C 38.7 °F /  3.7 °C 29.2in /  989.1hPa SW 15.2mph /  24.5km/h 15.2mph /  24.5km/h 96% 0.01in /  0.3mm
00:09 39.9 °F /  4.4 °C 38.7 °F /  3.7 °C 29.2in /  988.0hPa SW 15.2mph /  24.5km/h 15.2mph /  24.5km/h 95% 0.01in /  0.3mm
00:14 40.1 °F /  4.5 °C 38.5 °F /  3.6 °C 29.2in /  988.0hPa WSW 11.9mph /  19.1km/h 15.2mph /  24.5km/h 94% 0.01in /  0.3mm
00:19 40.3 °F /  4.6 °C 37.9 °F /  3.3 °C 29.2in /  988.0hPa SSW 18.8mph /  30.2km/h 18.8mph /  30.2km/h 91% 0.01in /  0.3mm
00:24 40.5 °F /  4.7 °C 37.2 °F /  2.9 °C 29.2in /  988.0hPa SSW 18.8mph /  30.2km/h 18.8mph /  30.2km/h 88% 0.01in /  0.3mm
00:29 40.5 °F /  4.7 °C 37.2 °F /  2.9 °C 29.2in /  988.0hPa SW 11.9mph /  19.1km/h 18.8mph /  30.2km/h 88% 0.01in /  0.3mm
00:34 40.5 °F /  4.7 °C 36.9 °F /  2.7 °C 29.2in /  988.0hPa WSW 11.4mph /  18.3km/h 18.8mph /  30.2km/h 87% 0.01in /  0.3mm
00:39 40.6 °F /  4.8 °C 37 °F /  2.8 °C 29.2in /  988.0hPa SW 10.3mph /  16.6km/h 12.1mph /  19.5km/h 87% 0.01in /  0.3mm
00:44 40.8 °F /  4.9 °C 37 °F /  2.8 °C 29.2in /  988.0hPa SSW 10.3mph /  16.6km/h 12.8mph /  20.6km/h 86% 0.01in /  0.3mm
00:49 41 °F /  5.0 °C 36.9 °F /  2.7 °C 29.2in /  988.0hPa SW 13.4mph /  21.6km/h 13.4mph /  21.6km/h 85% 0.01in /  0.3mm
00:54 41.2 °F /  5.1 °C 36.7 °F /  2.6 °C 29.2in /  988.0hPa SW 10.7mph /  17.2km/h 13.4mph /  21.6km/h 84% 0.01in /  0.3mm
00:59 41.2 °F /  5.1 °C 36.7 °F /  2.6 °C 29.2in /  988.0hPa SW 10.7mph /  17.2km/h 13.4mph /  21.6km/h 84% 0in /  0.0mm
01:04 41.4 °F /  5.2 °C 36.9 °F /  2.7 °C 29.2in /  988.0hPa SW 10.7mph /  17.2km/h 10.7mph /  17.2km/h 84% 0in /  0.0mm
01:09 41.4 °F /  5.2 °C 36.7 °F /  2.6 °C 29.2in /  988.0hPa SSW 12.8mph /  20.6km/h 12.8mph /  20.6km/h 83% 0in /  0.0mm
01:14 41.4 °F /  5.2 °C 36.7 °F /  2.6 °C 29.2in /  988.0hPa WSW 10.5mph /  16.9km/h 12.8mph /  20.6km/h 83% 0in /  0.0mm
01:19 41.5 °F /  5.3 °C 36.7 °F /  2.6 °C 29.2in /  988.0hPa SSW 12.8mph /  20.6km/h 12.8mph /  20.6km/h 83% 0in /  0.0mm
01:24 41.5 °F /  5.3 °C 36.1 °F /  2.3 °C 29.2in /  988.0hPa SW 18.8mph /  30.2km/h 18.8mph /  30.2km/h 81% 0in /  0.0mm
01:29 41.7 °F /  5.4 °C 36.3 °F /  2.4 °C 29.2in /  988.0hPa WSW 17.2mph /  27.7km/h 18.8mph /  30.2km/h 81% 0in /  0.0mm
01:34 41.7 °F /  5.4 °C 35.8 °F /  2.1 °C 29.2in /  988.0hPa SW 10.7mph /  17.2km/h 18.8mph /  30.2km/h 79% 0in /  0.0mm
01:39 41.7 °F /  5.4 °C 35.8 °F /  2.1 °C 29.2in /  988.0hPa WSW 10.5mph /  16.9km/h 19.5mph /  31.4km/h 79% 0in /  0.0mm
01:44 41.5 °F /  5.3 °C 35.4 °F /  1.9 °C 29.2in /  988.0hPa SSW 13.4mph /  21.6km/h 19.5mph /  31.4km/h 79% 0in /  0.0mm
01:49 41.5 °F /  5.3 °C 35.2 °F /  1.8 °C 29.2in /  988.0hPa SSW 12.5mph /  20.1km/h 17.7mph /  28.5km/h 78% 0in /  0.0mm
01:54 41.5 °F /  5.3 °C 35.2 °F /  1.8 °C 29.2in /  988.0hPa SW 12.3mph /  19.8km/h 17.2mph /  27.7km/h 78% 0in /  0.0mm
01:59 41.4 °F /  5.2 °C 35.1 °F /  1.7 °C 29.2in /  988.0hPa SW 11mph /  17.7km/h 17.2mph /  27.7km/h 78% 0in /  0.0mm
02:04 41.4 °F /  5.2 °C 35.1 °F /  1.7 °C 29.2in /  988.0hPa SW 12.5mph /  20.1km/h 13mph /  20.9km/h 78% 0in /  0.0mm
02:09 41.4 °F /  5.2 °C 34.7 °F /  1.5 °C 29.2in /  988.0hPa SW 7.8mph /  12.6km/h 13.2mph /  21.2km/h 77% 0in /  0.0mm
02:14 41.2 °F /  5.1 °C 34.5 °F /  1.4 °C 29.2in /  988.0hPa SSW 10.5mph /  16.9km/h 13.2mph /  21.2km/h 77% 0in /  0.0mm
02:19 41.2 °F /  5.1 °C 34.5 °F /  1.4 °C 29.2in /  988.0hPa SSW 11mph /  17.7km/h 12.8mph /  20.6km/h 77% 0in /  0.0mm
02:24 41.2 °F /  5.1 °C 34.5 °F /  1.4 °C 29.2in /  988.0hPa SSW 13mph /  20.9km/h 15.2mph /  24.5km/h 77% 0in /  0.0mm
02:29 41.2 °F /  5.1 °C 34.5 °F /  1.4 °C 29.2in /  988.0hPa SW 11mph /  17.7km/h 15.2mph /  24.5km/h 77% 0in /  0.0mm
02:34 41.2 °F /  5.1 °C 34.5 °F /  1.4 °C 29.2in /  988.0hPa SSW 10.3mph /  16.6km/h 14.5mph /  23.3km/h 77% 0in /  0.0mm
02:39 41.2 °F /  5.1 °C 34.5 °F /  1.4 °C 29.2in /  988.0hPa WSW 13.2mph /  21.2km/h 15.9mph /  25.6km/h 77% 0in /  0.0mm
02:44 41 °F /  5.0 °C 34.7 °F /  1.5 °C 29.2in /  988.0hPa WSW 12.8mph /  20.6km/h 15.9mph /  25.6km/h 78% 0in /  0.0mm
02:49 41 °F /  5.0 °C 34.7 °F /  1.5 °C 29.2in /  988.0hPa SW 12.8mph /  20.6km/h 16.3mph /  26.2km/h 78% 0in /  0.0mm
02:54 41 °F /  5.0 °C 34.7 °F /  1.5 °C 29.1in /  987.0hPa SSW 7.8mph /  12.6km/h 16.3mph /  26.2km/h 78% 0in /  0.0mm
02:59 41 °F /  5.0 °C 34.7 °F /  1.5 °C 29.1in /  987.0hPa SSW 12.3mph /  19.8km/h 15.2mph /  24.5km/h 78% 0in /  0.0mm
03:04 41 °F /  5.0 °C 35.1 °F /  1.7 °C 29.1in /  987.0hPa SW 9.8mph /  15.8km/h 13mph /  20.9km/h 79% 0in /  0.0mm
03:09 41 °F /  5.0 °C 35.1 °F /  1.7 °C 29.1in /  987.0hPa WSW 12.3mph /  19.8km/h 13.9mph /  22.4km/h 79% 0in /  0.0mm
03:14 41 °F /  5.0 °C 34.7 °F /  1.5 °C 29.1in /  987.0hPa SSW 12.8mph /  20.6km/h 17.2mph /  27.7km/h 78% 0in /  0.0mm
03:19 41 °F /  5.0 °C 34.7 °F /  1.5 °C 29.1in /  987.0hPa SSW 13.2mph /  21.2km/h 17.2mph /  27.7km/h 78% 0in /  0.0mm
03:24 41.2 °F /  5.1 °C 34.9 °F /  1.6 °C 29.1in /  987.0hPa SW 10.3mph /  16.6km/h 13.9mph /  22.4km/h 78% 0in /  0.0mm
03:29 41 °F /  5.0 °C 34.7 °F /  1.5 °C 29.1in /  987.0hPa SW 13mph /  20.9km/h 16.1mph /  25.9km/h 78% 0in /  0.0mm
03:34 41.2 °F /  5.1 °C 34.9 °F /  1.6 °C 29.1in /  987.0hPa SSW 9.8mph /  15.8km/h 16.8mph /  27.0km/h 78% 0in /  0.0mm
03:39 41.2 °F /  5.1 °C 34.9 °F /  1.6 °C 29.1in /  987.0hPa SSW 11mph /  17.7km/h 16.8mph /  27.0km/h 78% 0in /  0.0mm
03:44 41.2 °F /  5.1 °C 34.9 °F /  1.6 °C 29.1in /  987.0hPa SW 10.1mph /  16.3km/h 14.5mph /  23.3km/h 78% 0in /  0.0mm
03:49 41.2 °F /  5.1 °C 34.9 °F /  1.6 °C 29.1in /  987.0hPa SSW 7.8mph /  12.6km/h 15.9mph /  25.6km/h 78% 0in /  0.0mm
03:54 41 °F /  5.0 °C 34.7 °F /  1.5 °C 29.1in /  986.0hPa SW 11mph /  17.7km/h 15.9mph /  25.6km/h 78% 0in /  0.0mm
03:59 41 °F /  5.0 °C 35.1 °F /  1.7 °C 29.1in /  986.0hPa WSW 16.8mph /  27.0km/h 16.8mph /  27.0km/h 79% 0in /  0.0mm
04:04 40.8 °F /  4.9 °C 35.1 °F /  1.7 °C 29.1in /  986.0hPa WSW 11mph /  17.7km/h 18.8mph /  30.2km/h 80% 0in /  0.0mm
04:09 40.8 °F /  4.9 °C 35.4 °F /  1.9 °C 29.1in /  987.0hPa SW 11.4mph /  18.3km/h 18.8mph /  30.2km/h 81% 0in /  0.0mm
04:14 40.8 °F /  4.9 °C 35.4 °F /  1.9 °C 29.1in /  987.0hPa WSW 8.5mph /  13.7km/h 15.9mph /  25.6km/h 81% 0in /  0.0mm
04:19 40.8 °F /  4.9 °C 35.4 °F /  1.9 °C 29.1in /  987.0hPa SSW 8.7mph /  14.0km/h 15.2mph /  24.5km/h 81% 0in /  0.0mm
04:24 40.6 °F /  4.8 °C 35.6 °F /  2.0 °C 29.1in /  987.0hPa SW 6.3mph /  10.1km/h 14.8mph /  23.8km/h 82% 0in /  0.0mm
04:29 40.6 °F /  4.8 °C 35.6 °F /  2.0 °C 29.1in /  987.0hPa SW 8.1mph /  13.0km/h 14.1mph /  22.7km/h 82% 0in /  0.0mm
04:34 40.6 °F /  4.8 °C 35.6 °F /  2.0 °C 29.1in /  987.0hPa WSW 12.1mph /  19.5km/h 17mph /  27.4km/h 82% 0in /  0.0mm
04:39 40.8 °F /  4.9 °C 35.4 °F /  1.9 °C 29.1in /  986.0hPa WSW 13mph /  20.9km/h 17.4mph /  28.0km/h 81% 0in /  0.0mm
04:44 40.8 °F /  4.9 °C 35.4 °F /  1.9 °C 29.1in /  986.0hPa SW 10.7mph /  17.2km/h 17.4mph /  28.0km/h 81% 0in /  0.0mm
04:49 41 °F /  5.0 °C 35.2 °F /  1.8 °C 29.1in /  986.0hPa SSW 11mph /  17.7km/h 15.9mph /  25.6km/h 80% 0in /  0.0mm
04:54 41 °F /  5.0 °C 35.1 °F /  1.7 °C 29.1in /  987.0hPa WSW 11.9mph /  19.1km/h 15.9mph /  25.6km/h 79% 0in /  0.0mm
04:59 41 °F /  5.0 °C 35.1 °F /  1.7 °C 29.1in /  987.0hPa SSW 14.8mph /  23.8km/h 15.2mph /  24.5km/h 79% 0in /  0.0mm
05:04 41 °F /  5.0 °C 34.7 °F /  1.5 °C 29.1in /  987.0hPa WSW 13.4mph /  21.6km/h 15.4mph /  24.8km/h 78% 0in /  0.0mm
05:09 41 °F /  5.0 °C 34.7 °F /  1.5 °C 29.1in /  987.0hPa West 12.5mph /  20.1km/h 15.9mph /  25.6km/h 78% 0in /  0.0mm
05:14 40.8 °F /  4.9 °C 34.5 °F /  1.4 °C 29.1in /  987.0hPa WSW 14.8mph /  23.8km/h 17.4mph /  28.0km/h 78% 0in /  0.0mm
05:19 40.8 °F /  4.9 °C 34.5 °F /  1.4 °C 29.1in /  987.0hPa WSW 10.1mph /  16.3km/h 17.4mph /  28.0km/h 78% 0in /  0.0mm
05:24 41 °F /  5.0 °C 34.7 °F /  1.5 °C 29.1in /  987.0hPa WSW 13mph /  20.9km/h 17.4mph /  28.0km/h 78% 0in /  0.0mm
05:29 41 °F /  5.0 °C 34.3 °F /  1.3 °C 29.1in /  987.0hPa SW 16.1mph /  25.9km/h 23mph /  37.0km/h 77% 0in /  0.0mm
05:34 41.4 °F /  5.2 °C 34.7 °F /  1.5 °C 29.1in /  987.0hPa WSW 14.8mph /  23.8km/h 23.7mph /  38.1km/h 77% 0in /  0.0mm
05:39 41.4 °F /  5.2 °C 35.1 °F /  1.7 °C 29.1in /  986.0hPa SW 17.7mph /  28.5km/h 23.7mph /  38.1km/h 78% 0in /  0.0mm
05:44 41.4 °F /  5.2 °C 34.7 °F /  1.5 °C 29.1in /  986.0hPa SW 26.8mph /  43.1km/h 26.8mph /  43.1km/h 77% 0in /  0.0mm
05:49 41.4 °F /  5.2 °C 35.1 °F /  1.7 °C 29.1in /  986.0hPa SSW 13.9mph /  22.4km/h 26.8mph /  43.1km/h 78% 0in /  0.0mm
05:54 41.4 °F /  5.2 °C 35.1 °F /  1.7 °C 29.1in /  987.0hPa SSW 17.2mph /  27.7km/h 22.4mph /  36.0km/h 78% 0in /  0.0mm
05:59 41 °F /  5.0 °C 34.7 °F /  1.5 °C 29.1in /  987.0hPa WSW 15.4mph /  24.8km/h 20.6mph /  33.1km/h 78% 0in /  0.0mm
06:04 40.8 °F /  4.9 °C 34.5 °F /  1.4 °C 29.1in /  987.0hPa WSW 13.9mph /  22.4km/h 23.9mph /  38.5km/h 78% 0in /  0.0mm
06:09 40.6 °F /  4.8 °C 35.1 °F /  1.7 °C 29.1in /  987.0hPa WSW 20.4mph /  32.8km/h 28.6mph /  46.0km/h 80% 0in /  0.0mm
06:14 40.5 °F /  4.7 °C 35.1 °F /  1.7 °C 29.1in /  987.0hPa WSW 13mph /  20.9km/h 28.6mph /  46.0km/h 81% 0in /  0.0mm
06:19 40.1 °F /  4.5 °C 35.4 °F /  1.9 °C 29.1in /  987.0hPa SW 17mph /  27.4km/h 26.8mph /  43.1km/h 83% 0in /  0.0mm
06:24 40.1 °F /  4.5 °C 35.8 °F /  2.1 °C 29.1in /  987.0hPa SSW 17mph /  27.4km/h 23.5mph /  37.8km/h 84% 0in /  0.0mm
06:29 40.1 °F /  4.5 °C 36 °F /  2.2 °C 29.1in /  987.0hPa SW 19.9mph /  32.0km/h 23.5mph /  37.8km/h 85% 0in /  0.0mm
06:34 40.3 °F /  4.6 °C 36.1 °F /  2.3 °C 29.1in /  987.0hPa SW 22.4mph /  36.0km/h 23.5mph /  37.8km/h 85% 0in /  0.0mm
06:39 40.3 °F /  4.6 °C 36.1 °F /  2.3 °C 29.1in /  987.0hPa WSW 23mph /  37.0km/h 23mph /  37.0km/h 85% 0in /  0.0mm
06:44 40.3 °F /  4.6 °C 36.1 °F /  2.3 °C 29.1in /  987.0hPa WSW 19.5mph /  31.4km/h 24.2mph /  38.9km/h 85% 0in /  0.0mm
06:49 40.5 °F /  4.7 °C 36.7 °F /  2.6 °C 29.1in /  987.0hPa WSW 22.1mph /  35.6km/h 24.6mph /  39.6km/h 86% 0in /  0.0mm
06:54 40.5 °F /  4.7 °C 36.7 °F /  2.6 °C 29.2in /  988.0hPa WSW 14.5mph /  23.3km/h 27.3mph /  43.9km/h 86% 0in /  0.0mm
06:59 40.3 °F /  4.6 °C 36.3 °F /  2.4 °C 29.2in /  988.0hPa SW 17.4mph /  28.0km/h 27.3mph /  43.9km/h 86% 0in /  0.0mm
07:04 39.9 °F /  4.4 °C 35.4 °F /  1.9 °C 29.2in /  988.0hPa SW 21.9mph /  35.2km/h 24.6mph /  39.6km/h 84% 0in /  0.0mm
07:09 39.7 °F /  4.3 °C 35.2 °F /  1.8 °C 29.1in /  987.0hPa WSW 26.2mph /  42.2km/h 26.2mph /  42.2km/h 84% 0in /  0.0mm
07:14 39.7 °F /  4.3 °C 35.2 °F /  1.8 °C 29.1in /  987.0hPa WSW 13.2mph /  21.2km/h 26.2mph /  42.2km/h 84% 0in /  0.0mm
07:19 39.6 °F /  4.2 °C 35.4 °F /  1.9 °C 29.1in /  987.0hPa WSW 15.2mph /  24.5km/h 26.2mph /  42.2km/h 85% 0in /  0.0mm
07:24 39.6 °F /  4.2 °C 35.4 °F /  1.9 °C 29.1in /  987.0hPa SW 12.5mph /  20.1km/h 22.4mph /  36.0km/h 85% 0in /  0.0mm
07:29 39.4 °F /  4.1 °C 35.6 °F /  2.0 °C 29.1in /  987.0hPa SSW 15.4mph /  24.8km/h 22.8mph /  36.7km/h 86% 0in /  0.0mm
07:34 39.2 °F /  4.0 °C 35.8 °F /  2.1 °C 29.1in /  987.0hPa SSW 14.3mph /  23.0km/h 22.8mph /  36.7km/h 87% 0in /  0.0mm
07:39 39.2 °F /  4.0 °C 35.8 °F /  2.1 °C 29.2in /  988.0hPa SW 12.3mph /  19.8km/h 22.4mph /  36.0km/h 87% 0in /  0.0mm
07:44 39.2 °F /  4.0 °C 35.8 °F /  2.1 °C 29.2in /  988.0hPa WSW 22.4mph /  36.0km/h 22.4mph /  36.0km/h 87% 0in /  0.0mm
07:49 39.2 °F /  4.0 °C 35.8 °F /  2.1 °C 29.2in /  988.0hPa SW 15.9mph /  25.6km/h 25.3mph /  40.7km/h 87% 0in /  0.0mm
07:54 39.2 °F /  4.0 °C 35.8 °F /  2.1 °C 29.2in /  989.1hPa WSW 18.1mph /  29.1km/h 25.3mph /  40.7km/h 87% 0in /  0.0mm
07:59 39.2 °F /  4.0 °C 35.8 °F /  2.1 °C 29.2in /  989.1hPa WSW 16.6mph /  26.7km/h 25.9mph /  41.7km/h 87% 0in /  0.0mm
08:04 39.2 °F /  4.0 °C 35.8 °F /  2.1 °C 29.2in /  989.1hPa WSW 18.1mph /  29.1km/h 25.9mph /  41.7km/h 87% 0in /  0.0mm
08:09 39.2 °F /  4.0 °C 35.8 °F /  2.1 °C 29.2in /  990.1hPa WSW 26.8mph /  43.1km/h 30.9mph /  49.7km/h 87% 0in /  0.0mm
08:14 38.8 °F /  3.8 °C 36 °F /  2.2 °C 29.2in /  990.1hPa WSW 22.8mph /  36.7km/h 30.9mph /  49.7km/h 89% 0in /  0.0mm
08:16 38.7 °F /  3.7 °C 36 °F /  2.2 °C 29.2in /  990.1hPa WSW 21.3mph /  34.3km/h 30.9mph /  49.7km/h 90% 0in /  0.0mm
08:21 37.9 °F /  3.3 °C 35.6 °F /  2.0 °C 29.2in /  990.1hPa WSW 19.7mph /  31.7km/h 26.8mph /  43.1km/h 91% 0in /  0.0mm
08:26 37.8 °F /  3.2 °C 35.8 °F /  2.1 °C 29.2in /  988.0hPa WSW 17.4mph /  28.0km/h 23.7mph /  38.1km/h 92% 0in /  0.0mm
08:31 37.6 °F /  3.1 °C 35.6 °F /  2.0 °C 29.2in /  988.0hPa SSW 13.9mph /  22.4km/h 19.7mph /  31.7km/h 93% 0in /  0.0mm
08:36 37.2 °F /  2.9 °C 35.8 °F /  2.1 °C 29.2in /  988.0hPa WSW 12.3mph /  19.8km/h 17.9mph /  28.8km/h 94% 0.01in /  0.3mm
08:41 37.2 °F /  2.9 °C 35.8 °F /  2.1 °C 29.2in /  988.0hPa SW 13mph /  20.9km/h 16.3mph /  26.2km/h 94% 0.01in /  0.3mm
08:46 37.2 °F /  2.9 °C 36 °F /  2.2 °C 29.2in /  988.0hPa WSW 14.3mph /  23.0km/h 14.3mph /  23.0km/h 95% 0.01in /  0.3mm
08:51 37.2 °F /  2.9 °C 36 °F /  2.2 °C 29.2in /  988.0hPa West 11.9mph /  19.1km/h 14.3mph /  23.0km/h 95% 0.03in /  0.8mm
08:56 37 °F /  2.8 °C 36.1 °F /  2.3 °C 29.2in /  989.1hPa WSW 9.8mph /  15.8km/h 14.3mph /  23.0km/h 96% 0.03in /  0.8mm
09:01 36.9 °F /  2.7 °C 36 °F /  2.2 °C 29.2in /  989.1hPa WSW 7.8mph /  12.6km/h 11.9mph /  19.1km/h 96% 0.06in /  1.5mm
09:06 36.9 °F /  2.7 °C 36.1 °F /  2.3 °C 29.2in /  989.1hPa WSW 8.7mph /  14.0km/h 11.4mph /  18.3km/h 97% 0.06in /  1.5mm
09:11 36.9 °F /  2.7 °C 36.1 °F /  2.3 °C 29.2in /  989.1hPa SW 8.1mph /  13.0km/h 10.7mph /  17.2km/h 97% 0.06in /  1.5mm
09:16 36.9 °F /  2.7 °C 36.1 °F /  2.3 °C 29.2in /  989.1hPa SW 8.1mph /  13.0km/h 10.3mph /  16.6km/h 97% 0.06in /  1.5mm
09:21 37 °F /  2.8 °C 36.3 °F /  2.4 °C 29.2in /  989.1hPa SW 5.8mph /  9.3km/h 8.1mph /  13.0km/h 97% 0.06in /  1.5mm
09:26 37 °F /  2.8 °C 36.3 °F /  2.4 °C 29.2in /  989.1hPa WSW 7.8mph /  12.6km/h 8.1mph /  13.0km/h 97% 0.09in /  2.3mm
09:31 37 °F /  2.8 °C 36.3 °F /  2.4 °C 29.2in /  989.1hPa WSW 5.8mph /  9.3km/h 7.8mph /  12.6km/h 97% 0.09in /  2.3mm
09:36 37 °F /  2.8 °C 36.3 °F /  2.4 °C 29.2in /  989.1hPa WSW 4.9mph /  7.9km/h 7.8mph /  12.6km/h 97% 0.09in /  2.3mm
09:41 37.2 °F /  2.9 °C 36.5 °F /  2.5 °C 29.2in /  989.1hPa WSW 5.4mph /  8.7km/h 6.5mph /  10.5km/h 97% 0.09in /  2.3mm
09:46 37.2 °F /  2.9 °C 36.5 °F /  2.5 °C 29.2in /  989.1hPa SW 4mph /  6.4km/h 6.5mph /  10.5km/h 97% 0.09in /  2.3mm
09:51 37.2 °F /  2.9 °C 36.5 °F /  2.5 °C 29.2in /  989.1hPa WSW 6mph /  9.7km/h 6mph /  9.7km/h 97% 0.07in /  1.8mm
09:56 37 °F /  2.8 °C 36.7 °F /  2.6 °C 29.2in /  989.1hPa WSW 6mph /  9.7km/h 6mph /  9.7km/h 98% 0.06in /  1.5mm
10:01 36.9 °F /  2.7 °C 36.3 °F /  2.4 °C 29.2in /  989.1hPa WSW 6mph /  9.7km/h 6mph /  9.7km/h 98% 0.04in /  1.0mm
10:06 37 °F /  2.8 °C 36.7 °F /  2.6 °C 29.2in /  989.1hPa WSW 6mph /  9.7km/h 6mph /  9.7km/h 98% 0.04in /  1.0mm
10:11 37.2 °F /  2.9 °C 36.9 °F /  2.7 °C 29.2in /  988.0hPa WSW 6mph /  9.7km/h 6mph /  9.7km/h 98% 0.04in /  1.0mm
10:16 37.6 °F /  3.1 °C 37 °F /  2.8 °C 29.2in /  988.0hPa WSW 6mph /  9.7km/h 6mph /  9.7km/h 98% 0.04in /  1.0mm
10:21 37.8 °F /  3.2 °C 37.2 °F /  2.9 °C 29.2in /  988.0hPa Calm     98% 0.03in /  0.8mm
10:26 37.8 °F /  3.2 °C 37.2 °F /  2.9 °C 29.2in /  989.1hPa Calm     98% 0.02in /  0.5mm
10:31 37.9 °F /  3.3 °C 37.6 °F /  3.1 °C 29.2in /  989.1hPa Calm     98% 0.02in /  0.5mm
10:36 38.5 °F /  3.6 °C 37.8 °F /  3.2 °C 29.2in /  989.1hPa Calm     98% 0.01in /  0.3mm
10:41 38.7 °F /  3.7 °C 38.1 °F /  3.4 °C 29.2in /  989.1hPa Calm     98% 0.01in /  0.3mm
10:46 39.4 °F /  4.1 °C 38.8 °F /  3.8 °C 29.2in /  989.1hPa Calm     98% 0.01in /  0.3mm
10:51 39.7 °F /  4.3 °C 39.2 °F /  4.0 °C 29.2in /  989.1hPa South 1.3mph /  2.1km/h 1.3mph /  2.1km/h 98% 0.01in /  0.3mm
10:56 40.5 °F /  4.7 °C 39.9 °F /  4.4 °C 29.2in /  989.1hPa South 1.3mph /  2.1km/h 1.3mph /  2.1km/h 98% 0.01in /  0.3mm
11:01 40.6 °F /  4.8 °C 40.1 °F /  4.5 °C 29.2in /  989.1hPa Calm   1.3mph /  2.1km/h 98% 0.01in /  0.3mm
11:06 40.5 °F /  4.7 °C 39.9 °F /  4.4 °C 29.2in /  989.1hPa Calm   1.3mph /  2.1km/h 98% 0.01in /  0.3mm
11:11 40.5 °F /  4.7 °C 39.9 °F /  4.4 °C 29.2in /  989.1hPa Calm   1.3mph /  2.1km/h 98% 0.01in /  0.3mm
11:12 40.5 °F /  4.7 °C 39.9 °F /  4.4 °C 29.2in /  989.1hPa Calm   1.3mph /  2.1km/h 98% 0.01in /  0.3mm
11:17 40.5 °F /  4.7 °C 39.9 °F /  4.4 °C 29.2in /  989.1hPa Calm     98% 0.01in /  0.3mm
11:22 40.3 °F /  4.6 °C 39.6 °F /  4.2 °C 29.2in /  989.1hPa Calm     97% 0in /  0.0mm
11:27 39.9 °F /  4.4 °C 39.2 °F /  4.0 °C 29.2in /  988.0hPa Calm     97% 0in /  0.0mm
11:32 39.9 °F /  4.4 °C 39.2 °F /  4.0 °C 29.2in /  988.0hPa Calm     97% 0in /  0.0mm
11:37 39.9 °F /  4.4 °C 39.2 °F /  4.0 °C 29.2in /  988.0hPa Calm     97% 0in /  0.0mm
11:42 40.1 °F /  4.5 °C 39.4 °F /  4.1 °C 29.2in /  988.0hPa Calm     97% 0in /  0.0mm
11:47 39.9 °F /  4.4 °C 39.2 °F /  4.0 °C 29.2in /  988.0hPa Calm     97% 0in /  0.0mm
11:52 39.7 °F /  4.3 °C 39 °F /  3.9 °C 29.2in /  988.0hPa West 3.8mph /  6.1km/h 3.8mph /  6.1km/h 97% 0in /  0.0mm
11:57 39.6 °F /  4.2 °C 38.8 °F /  3.8 °C 29.2in /  989.1hPa West 3.8mph /  6.1km/h 3.8mph /  6.1km/h 97% 0in /  0.0mm
12:02 39.2 °F /  4.0 °C 38.5 °F /  3.6 °C 29.2in /  989.1hPa West 3.8mph /  6.1km/h 3.8mph /  6.1km/h 97% 0in /  0.0mm
12:07 39.2 °F /  4.0 °C 38.5 °F /  3.6 °C 29.2in /  989.1hPa West 3.8mph /  6.1km/h 3.8mph /  6.1km/h 97% 0in /  0.0mm
12:12 39.2 °F /  4.0 °C 38.5 °F /  3.6 °C 29.2in /  989.1hPa West 3.8mph /  6.1km/h 3.8mph /  6.1km/h 97% 0in /  0.0mm
12:17 38.8 °F /  3.8 °C 38.1 °F /  3.4 °C 29.2in /  989.1hPa West 3.8mph /  6.1km/h 3.8mph /  6.1km/h 97% 0.01in /  0.3mm
12:22 38.7 °F /  3.7 °C 37.9 °F /  3.3 °C 29.2in /  989.1hPa West 3.8mph /  6.1km/h 3.8mph /  6.1km/h 97% 0.01in /  0.3mm
12:27 38.7 °F /  3.7 °C 37.9 °F /  3.3 °C 29.2in /  989.1hPa West 3.8mph /  6.1km/h 3.8mph /  6.1km/h 97% 0.03in /  0.8mm
12:32 38.7 °F /  3.7 °C 37.9 °F /  3.3 °C 29.2in /  989.1hPa West 3.8mph /  6.1km/h 3.8mph /  6.1km/h 97% 0.03in /  0.8mm
12:37 38.7 °F /  3.7 °C 38.1 °F /  3.4 °C 29.2in /  989.1hPa West 3.8mph /  6.1km/h 3.8mph /  6.1km/h 98% 0.03in /  0.8mm
12:42 38.7 °F /  3.7 °C 38.1 °F /  3.4 °C 29.2in /  989.1hPa West 3.8mph /  6.1km/h 3.8mph /  6.1km/h 98% 0.04in /  1.0mm
12:47 38.7 °F /  3.7 °C 38.1 °F /  3.4 °C 29.2in /  989.1hPa West 3.8mph /  6.1km/h 3.8mph /  6.1km/h 98% 0.05in /  1.3mm
12:52 38.7 °F /  3.7 °C 38.1 °F /  3.4 °C 29.2in /  989.1hPa West 3.8mph /  6.1km/h 3.8mph /  6.1km/h 98% 0.05in /  1.3mm
12:57 38.5 °F /  3.6 °C 37.9 °F /  3.3 °C 29.2in /  989.1hPa West 3.8mph /  6.1km/h 3.8mph /  6.1km/h 98% 0.05in /  1.3mm
13:02 38.5 °F /  3.6 °C 37.8 °F /  3.2 °C 29.2in /  989.1hPa West 3.8mph /  6.1km/h 3.8mph /  6.1km/h 98% 0.09in /  2.3mm
13:07 38.5 °F /  3.6 °C 37.8 °F /  3.2 °C 29.2in /  989.1hPa West 3.8mph /  6.1km/h 3.8mph /  6.1km/h 98% 0.09in /  2.3mm
13:12 38.5 °F /  3.6 °C 37.9 °F /  3.3 °C 29.2in /  989.1hPa West 3.8mph /  6.1km/h 3.8mph /  6.1km/h 98% 0.12in /  3.0mm
13:17 38.7 °F /  3.7 °C 38.1 °F /  3.4 °C 29.2in /  989.1hPa West 3.8mph /  6.1km/h 3.8mph /  6.1km/h 98% 0.11in /  2.8mm
13:22 39.2 °F /  4.0 °C 38.7 °F /  3.7 °C 29.2in /  989.1hPa West 3.8mph /  6.1km/h 3.8mph /  6.1km/h 98% 0.11in /  2.8mm
13:27 40.1 °F /  4.5 °C 39.6 °F /  4.2 °C 29.2in /  989.1hPa West 3.8mph /  6.1km/h 3.8mph /  6.1km/h 98% 0.09in /  2.3mm
13:32 40.5 °F /  4.7 °C 39.9 °F /  4.4 °C 29.2in /  989.1hPa West 3.8mph /  6.1km/h 3.8mph /  6.1km/h 98% 0.09in /  2.3mm
13:37 40.5 °F /  4.7 °C 39.9 °F /  4.4 °C 29.2in /  989.1hPa West 3.8mph /  6.1km/h 3.8mph /  6.1km/h 98% 0.09in /  2.3mm
13:42 40.6 °F /  4.8 °C 40.1 °F /  4.5 °C 29.2in /  989.1hPa West 3.8mph /  6.1km/h 3.8mph /  6.1km/h 98% 0.08in /  2.0mm
13:47 42.1 °F /  5.6 °C 41.5 °F /  5.3 °C 29.2in /  989.1hPa West 3.8mph /  6.1km/h 3.8mph /  6.1km/h 98% 0.08in /  2.0mm
13:52 43 °F /  6.1 °C 42.4 °F /  5.8 °C 29.2in /  989.1hPa West 3.8mph /  6.1km/h 3.8mph /  6.1km/h 98% 0.08in /  2.0mm
13:57 42.6 °F /  5.9 °C 42.1 °F /  5.6 °C 29.2in /  989.1hPa West 3.8mph /  6.1km/h 3.8mph /  6.1km/h 98% 0.08in /  2.0mm
14:02 42.8 °F /  6.0 °C 42.3 °F /  5.7 °C 29.2in /  989.1hPa West 3.8mph /  6.1km/h 3.8mph /  6.1km/h 98% 0.04in /  1.0mm
14:07 42.8 °F /  6.0 °C 42.3 °F /  5.7 °C 29.2in /  990.1hPa West 3.8mph /  6.1km/h 3.8mph /  6.1km/h 98% 0.01in /  0.3mm
14:12 42.8 °F /  6.0 °C 42.1 °F /  5.6 °C 29.2in /  990.1hPa West 3.8mph /  6.1km/h 3.8mph /  6.1km/h 97% 0.01in /  0.3mm
14:17 42.8 °F /  6.0 °C 42.1 °F /  5.6 °C 29.2in /  990.1hPa West 3.8mph /  6.1km/h 3.8mph /  6.1km/h 97% 0.01in /  0.3mm
14:22 42.4 °F /  5.8 °C 41.5 °F /  5.3 °C 29.2in /  989.1hPa West 3.8mph /  6.1km/h 3.8mph /  6.1km/h 97% 0.01in /  0.3mm
14:27 42.3 °F /  5.7 °C 41.4 °F /  5.2 °C 29.2in /  989.1hPa West 3.8mph /  6.1km/h 3.8mph /  6.1km/h 97% 0.01in /  0.3mm
14:32 42.8 °F /  6.0 °C 41.7 °F /  5.4 °C 29.2in /  989.1hPa West 3.8mph /  6.1km/h 3.8mph /  6.1km/h 96% 0.01in /  0.3mm
14:37 43.2 °F /  6.2 °C 42.1 °F /  5.6 °C 29.2in /  989.1hPa WSW 17.2mph /  27.7km/h 17.2mph /  27.7km/h 96% 0.01in /  0.3mm
14:42 43 °F /  6.1 °C 41.5 °F /  5.3 °C 29.2in /  989.1hPa West 13.2mph /  21.2km/h 17.2mph /  27.7km/h 95% 0.01in /  0.3mm
14:47 43.5 °F /  6.4 °C 42.1 °F /  5.6 °C 29.2in /  989.1hPa WSW 11mph /  17.7km/h 17.2mph /  27.7km/h 95% 0in /  0.0mm
14:52 45 °F /  7.2 °C 43.5 °F /  6.4 °C 29.2in /  989.1hPa WSW 11mph /  17.7km/h 14.5mph /  23.3km/h 95% 0in /  0.0mm
14:57 45.1 °F /  7.3 °C 43.7 °F /  6.5 °C 29.2in /  989.1hPa WSW 12.5mph /  20.1km/h 15.2mph /  24.5km/h 95% 0in /  0.0mm
15:02 45.3 °F /  7.4 °C 43.5 °F /  6.4 °C 29.2in /  989.1hPa West 10.5mph /  16.9km/h 15.2mph /  24.5km/h 93% 0in /  0.0mm
15:07 45.9 °F /  7.7 °C 43.2 °F /  6.2 °C 29.2in /  988.0hPa WSW 17mph /  27.4km/h 17mph /  27.4km/h 90% 0in /  0.0mm
15:12 46.6 °F /  8.1 °C 43.3 °F /  6.3 °C 29.2in /  988.0hPa West 14.8mph /  23.8km/h 17mph /  27.4km/h 89% 0in /  0.0mm
15:17 46.6 °F /  8.1 °C 42.4 °F /  5.8 °C 29.2in /  988.0hPa West 10.3mph /  16.6km/h 17mph /  27.4km/h 86% 0in /  0.0mm
15:22 46.9 °F /  8.3 °C 43 °F /  6.1 °C 29.2in /  989.1hPa WSW 14.5mph /  23.3km/h 15.9mph /  25.6km/h 86% 0in /  0.0mm
15:27 46.6 °F /  8.1 °C 42.1 °F /  5.6 °C 29.2in /  989.1hPa WSW 13.2mph /  21.2km/h 17.2mph /  27.7km/h 84% 0in /  0.0mm
15:32 46.6 °F /  8.1 °C 41.4 °F /  5.2 °C 29.2in /  989.1hPa WSW 17.4mph /  28.0km/h 17.4mph /  28.0km/h 82% 0in /  0.0mm
15:37 46.9 °F /  8.3 °C 41.2 °F /  5.1 °C 29.2in /  989.1hPa WSW 17.4mph /  28.0km/h 17.7mph /  28.5km/h 80% 0in /  0.0mm
15:42 46.6 °F /  8.1 °C 39.6 °F /  4.2 °C 29.2in /  989.1hPa WSW 13.2mph /  21.2km/h 24.2mph /  38.9km/h 76% 0in /  0.0mm
15:47 46.6 °F /  8.1 °C 39 °F /  3.9 °C 29.2in /  989.1hPa West 19.9mph /  32.0km/h 24.2mph /  38.9km/h 75% 0in /  0.0mm
15:52 45.9 °F /  7.7 °C 38.1 °F /  3.4 °C 29.2in /  990.1hPa WNW 14.5mph /  23.3km/h 21.9mph /  35.2km/h 74% 0in /  0.0mm
15:57 45.9 °F /  7.7 °C 38.3 °F /  3.5 °C 29.2in /  990.1hPa WSW 11mph /  17.7km/h 19.2mph /  30.9km/h 75% 0in /  0.0mm
16:00 45.9 °F /  7.7 °C 38.3 °F /  3.5 °C 29.2in /  990.1hPa WSW 14.5mph /  23.3km/h 19.2mph /  30.9km/h 75% 0in /  0.0mm
16:05 45.9 °F /  7.7 °C 37.8 °F /  3.2 °C 29.2in /  990.1hPa WSW 11.2mph /  18.0km/h 19mph /  30.6km/h 73% 0in /  0.0mm
16:10 46.2 °F /  7.9 °C 36.7 °F /  2.6 °C 29.2in /  990.1hPa West 16.6mph /  26.7km/h 25.9mph /  41.7km/h 69% 0in /  0.0mm
16:15 46.2 °F /  7.9 °C 35.4 °F /  1.9 °C 29.2in /  990.1hPa West 17.9mph /  28.8km/h 25.9mph /  41.7km/h 66% 0in /  0.0mm
16:20 46.6 °F /  8.1 °C 36.1 °F /  2.3 °C 29.2in /  990.1hPa West 19.5mph /  31.4km/h 24.6mph /  39.6km/h 67% 0in /  0.0mm
16:25 46.6 °F /  8.1 °C 35.2 °F /  1.8 °C 29.3in /  991.1hPa West 15.9mph /  25.6km/h 22.4mph /  36.0km/h 65% 0in /  0.0mm
16:30 46.2 °F /  7.9 °C 35.2 °F /  1.8 °C 29.3in /  991.1hPa WSW 19mph /  30.6km/h 21.9mph /  35.2km/h 65% 0in /  0.0mm
16:35 46 °F /  7.8 °C 34.5 °F /  1.4 °C 29.3in /  991.1hPa West 17.2mph /  27.7km/h 20.6mph /  33.1km/h 64% 0in /  0.0mm
16:40 45.9 °F /  7.7 °C 33.1 °F /  0.6 °C 29.3in /  991.1hPa West 22.4mph /  36.0km/h 22.8mph /  36.7km/h 61% 0in /  0.0mm
16:41 45.7 °F /  7.6 °C 32.2 °F /  0.1 °C 29.3in /  991.1hPa West 13mph /  20.9km/h 22.8mph /  36.7km/h 59% 0in /  0.0mm
16:46 45.7 °F /  7.6 °C 32.5 °F /  0.3 °C 29.3in /  991.1hPa WSW 17mph /  27.4km/h 22.8mph /  36.7km/h 60% 0in /  0.0mm
16:51 45.7 °F /  7.6 °C 32.9 °F /  0.5 °C 29.3in /  991.1hPa WSW 17.2mph /  27.7km/h 22.1mph /  35.6km/h 61% 0in /  0.0mm
16:56 45.1 °F /  7.3 °C 33.4 °F /  0.8 °C 29.3in /  991.1hPa West 11mph /  17.7km/h 22.1mph /  35.6km/h 63% 0in /  0.0mm
17:01 45.1 °F /  7.3 °C 34.3 °F /  1.3 °C 29.3in /  991.1hPa WSW 17.9mph /  28.8km/h 19.5mph /  31.4km/h 66% 0in /  0.0mm
17:06 44.4 °F /  6.9 °C 33.1 °F /  0.6 °C 29.3in /  991.1hPa West 15.4mph /  24.8km/h 22.4mph /  36.0km/h 64% 0in /  0.0mm
17:11 44.2 °F /  6.8 °C 32.9 °F /  0.5 °C 29.3in /  991.1hPa WSW 13.2mph /  21.2km/h 22.4mph /  36.0km/h 64% 0in /  0.0mm
17:16 44.2 °F /  6.8 °C 33.4 °F /  0.8 °C 29.3in /  991.1hPa West 10.1mph /  16.3km/h 19.9mph /  32.0km/h 66% 0in /  0.0mm
17:21 44.1 °F /  6.7 °C 34.2 °F /  1.2 °C 29.3in /  991.1hPa WSW 13.4mph /  21.6km/h 19.7mph /  31.7km/h 68% 0in /  0.0mm
17:26 43.9 °F /  6.6 °C 34 °F /  1.1 °C 29.3in /  991.1hPa West 14.5mph /  23.3km/h 20.8mph /  33.5km/h 68% 0in /  0.0mm
17:31 43.5 °F /  6.4 °C 33.1 °F /  0.6 °C 29.3in /  991.1hPa West 13.2mph /  21.2km/h 20.8mph /  33.5km/h 66% 0in /  0.0mm
17:36 43.5 °F /  6.4 °C 33.6 °F /  0.9 °C 29.3in /  991.1hPa West 8.5mph /  13.7km/h 19.9mph /  32.0km/h 68% 0in /  0.0mm
17:41 43.5 °F /  6.4 °C 34 °F /  1.1 °C 29.3in /  991.1hPa WSW 13mph /  20.9km/h 17mph /  27.4km/h 69% 0in /  0.0mm
17:46 43.5 °F /  6.4 °C 34.3 °F /  1.3 °C 29.3in /  991.1hPa West 9.6mph /  15.4km/h 17mph /  27.4km/h 70% 0in /  0.0mm
17:51 43.3 °F /  6.3 °C 34.5 °F /  1.4 °C 29.3in /  991.1hPa WSW 10.3mph /  16.6km/h 15.4mph /  24.8km/h 71% 0in /  0.0mm
17:56 43.3 °F /  6.3 °C 35.2 °F /  1.8 °C 29.3in /  992.1hPa West 13.2mph /  21.2km/h 15.7mph /  25.3km/h 73% 0in /  0.0mm
18:01 43.3 °F /  6.3 °C 35.2 °F /  1.8 °C 29.3in /  992.1hPa WSW 8.5mph /  13.7km/h 15.7mph /  25.3km/h 73% 0in /  0.0mm
18:06 43.2 °F /  6.2 °C 35.4 °F /  1.9 °C 29.3in /  992.1hPa WSW 10.7mph /  17.2km/h 16.8mph /  27.0km/h 74% 0in /  0.0mm
18:11 43.3 °F /  6.3 °C 35.2 °F /  1.8 °C 29.3in /  993.1hPa WSW 14.8mph /  23.8km/h 20.4mph /  32.8km/h 73% 0in /  0.0mm
18:16 43.3 °F /  6.3 °C 35.2 °F /  1.8 °C 29.3in /  993.1hPa WSW 10.3mph /  16.6km/h 20.4mph /  32.8km/h 73% 0in /  0.0mm
18:21 43.3 °F /  6.3 °C 35.2 °F /  1.8 °C 29.3in /  993.1hPa West 13.2mph /  21.2km/h 17.4mph /  28.0km/h 73% 0in /  0.0mm
18:26 43.3 °F /  6.3 °C 35.6 °F /  2.0 °C 29.3in /  993.1hPa West 12.8mph /  20.6km/h 15.4mph /  24.8km/h 74% 0in /  0.0mm
18:31 43.3 °F /  6.3 °C 35.2 °F /  1.8 °C 29.3in /  993.1hPa West 14.1mph /  22.7km/h 20.6mph /  33.1km/h 73% 0in /  0.0mm
18:36 43.3 °F /  6.3 °C 35.6 °F /  2.0 °C 29.3in /  993.1hPa WSW 10.7mph /  17.2km/h 20.6mph /  33.1km/h 74% 0in /  0.0mm
18:41 43.2 °F /  6.2 °C 34.7 °F /  1.5 °C 29.3in /  993.1hPa West 8.9mph /  14.3km/h 14.8mph /  23.8km/h 72% 0in /  0.0mm
18:46 43 °F /  6.1 °C 34.5 °F /  1.4 °C 29.3in /  993.1hPa WSW 8.5mph /  13.7km/h 14.8mph /  23.8km/h 72% 0in /  0.0mm
18:51 42.8 °F /  6.0 °C 34.7 °F /  1.5 °C 29.3in /  993.1hPa WSW 6.5mph /  10.5km/h 10.5mph /  16.9km/h 73% 0in /  0.0mm
18:56 42.6 °F /  5.9 °C 34.9 °F /  1.6 °C 29.3in /  993.1hPa WSW 4.7mph /  7.6km/h 10.5mph /  16.9km/h 74% 0in /  0.0mm
19:01 42.6 °F /  5.9 °C 35.2 °F /  1.8 °C 29.3in /  993.1hPa WSW 6.3mph /  10.1km/h 8.1mph /  13.0km/h 75% 0in /  0.0mm
19:06 42.6 °F /  5.9 °C 35.4 °F /  1.9 °C 29.3in /  993.1hPa WSW 7.8mph /  12.6km/h 9.6mph /  15.4km/h 76% 0in /  0.0mm
19:11 42.6 °F /  5.9 °C 36 °F /  2.2 °C 29.3in /  992.1hPa WSW 7.6mph /  12.2km/h 9.6mph /  15.4km/h 77% 0in /  0.0mm
19:16 42.8 °F /  6.0 °C 36 °F /  2.2 °C 29.3in /  992.1hPa WSW 6.7mph /  10.8km/h 8.7mph /  14.0km/h 77% 0in /  0.0mm
19:21 42.8 °F /  6.0 °C 36 °F /  2.2 °C 29.3in /  992.1hPa South 4.9mph /  7.9km/h 8.7mph /  14.0km/h 77% 0in /  0.0mm
19:26 43 °F /  6.1 °C 36.5 °F /  2.5 °C 29.3in /  993.1hPa SW 5.6mph /  9.0km/h 10.1mph /  16.3km/h 78% 0in /  0.0mm
19:31 43.2 °F /  6.2 °C 36.7 °F /  2.6 °C 29.3in /  993.1hPa SW 6.9mph /  11.1km/h 12.1mph /  19.5km/h 78% 0in /  0.0mm
19:36 43.2 °F /  6.2 °C 36.7 °F /  2.6 °C 29.3in /  993.1hPa WSW 9.8mph /  15.8km/h 13.2mph /  21.2km/h 78% 0in /  0.0mm
19:41 43.2 °F /  6.2 °C 36.7 °F /  2.6 °C 29.3in /  993.1hPa WSW 20.8mph /  33.5km/h 23mph /  37.0km/h 78% 0in /  0.0mm
19:46 42.8 °F /  6.0 °C 37 °F /  2.8 °C 29.3in /  993.1hPa WSW 13mph /  20.9km/h 24.2mph /  38.9km/h 80% 0in /  0.0mm
19:51 42.4 °F /  5.8 °C 37.2 °F /  2.9 °C 29.3in /  993.1hPa WSW 25.1mph /  40.4km/h 25.1mph /  40.4km/h 82% 0in /  0.0mm
19:56 42.1 °F /  5.6 °C 37.2 °F /  2.9 °C 29.3in /  993.1hPa WSW 19.5mph /  31.4km/h 25.1mph /  40.4km/h 83% 0in /  0.0mm
20:01 41.9 °F /  5.5 °C 37.8 °F /  3.2 °C 29.3in /  993.1hPa WSW 10.1mph /  16.3km/h 23.7mph /  38.1km/h 85% 0in /  0.0mm
20:06 41.5 °F /  5.3 °C 37.6 °F /  3.1 °C 29.3in /  993.1hPa WSW 10.3mph /  16.6km/h 19.5mph /  31.4km/h 86% 0in /  0.0mm
20:11 41.4 °F /  5.2 °C 38.1 °F /  3.4 °C 29.3in /  992.1hPa West 10.1mph /  16.3km/h 15.9mph /  25.6km/h 88% 0.01in /  0.3mm
20:16 41.2 °F /  5.1 °C 38.1 °F /  3.4 °C 29.3in /  992.1hPa WSW 13.2mph /  21.2km/h 15.9mph /  25.6km/h 89% 0.03in /  0.8mm
20:21 41 °F /  5.0 °C 38.7 °F /  3.7 °C 29.3in /  992.1hPa WSW 10.1mph /  16.3km/h 13.2mph /  21.2km/h 91% 0.03in /  0.8mm
20:26 40.8 °F /  4.9 °C 39 °F /  3.9 °C 29.3in /  993.1hPa WSW 15.2mph /  24.5km/h 17mph /  27.4km/h 93% 0.03in /  0.8mm
20:31 40.5 °F /  4.7 °C 38.8 °F /  3.8 °C 29.3in /  993.1hPa West 19.5mph /  31.4km/h 24.6mph /  39.6km/h 94% 0.07in /  1.8mm
20:36 40.5 °F /  4.7 °C 39 °F /  3.9 °C 29.3in /  993.1hPa WSW 17.2mph /  27.7km/h 24.6mph /  39.6km/h 95% 0.08in /  2.0mm
20:41 40.5 °F /  4.7 °C 39 °F /  3.9 °C 29.3in /  993.1hPa WSW 15.2mph /  24.5km/h 20.1mph /  32.3km/h 95% 0.08in /  2.0mm
20:46 40.3 °F /  4.6 °C 39.2 °F /  4.0 °C 29.3in /  993.1hPa WSW 10.1mph /  16.3km/h 17.2mph /  27.7km/h 96% 0.08in /  2.0mm
20:51 40.3 °F /  4.6 °C 39.2 °F /  4.0 °C 29.3in /  993.1hPa WSW 11.2mph /  18.0km/h 15.2mph /  24.5km/h 96% 0.08in /  2.0mm
20:56 40.3 °F /  4.6 °C 39.2 °F /  4.0 °C 29.4in /  994.1hPa SW 11mph /  17.7km/h 15.2mph /  24.5km/h 96% 0.08in /  2.0mm
21:01 40.5 °F /  4.7 °C 39.7 °F /  4.3 °C 29.4in /  994.1hPa SW 10.1mph /  16.3km/h 14.8mph /  23.8km/h 97% 0.08in /  2.0mm
21:06 40.5 °F /  4.7 °C 39.7 °F /  4.3 °C 29.4in /  994.1hPa SSW 11.2mph /  18.0km/h 15.9mph /  25.6km/h 97% 0.07in /  1.8mm
21:11 40.5 °F /  4.7 °C 39.7 °F /  4.3 °C 29.4in /  994.1hPa WSW 10.5mph /  16.9km/h 15.9mph /  25.6km/h 97% 0.07in /  1.8mm
21:16 40.5 °F /  4.7 °C 39.7 °F /  4.3 °C 29.4in /  994.1hPa WSW 9.8mph /  15.8km/h 13.4mph /  21.6km/h 97% 0.05in /  1.3mm
21:21 40.6 °F /  4.8 °C 39.9 °F /  4.4 °C 29.4in /  994.1hPa SW 7.4mph /  11.9km/h 11.2mph /  18.0km/h 97% 0.05in /  1.3mm
21:26 40.6 °F /  4.8 °C 40.1 °F /  4.5 °C 29.4in /  994.1hPa WSW 6.5mph /  10.5km/h 12.1mph /  19.5km/h 98% 0.05in /  1.3mm
21:31 40.8 °F /  4.9 °C 39.9 °F /  4.4 °C 29.4in /  994.1hPa SSW 7.4mph /  11.9km/h 12.1mph /  19.5km/h 97% 0in /  0.0mm
21:36 40.8 °F /  4.9 °C 39.9 °F /  4.4 °C 29.4in /  994.1hPa WSW 6mph /  9.7km/h 10.5mph /  16.9km/h 97% 0in /  0.0mm
21:41 41 °F /  5.0 °C 40.3 °F /  4.6 °C 29.4in /  994.1hPa SW 10.7mph /  17.2km/h 14.1mph /  22.7km/h 97% 0in /  0.0mm
21:46 41.2 °F /  5.1 °C 40.6 °F /  4.8 °C 29.4in /  994.1hPa WSW 12.5mph /  20.1km/h 14.1mph /  22.7km/h 98% 0in /  0.0mm
21:51 41.2 °F /  5.1 °C 40.6 °F /  4.8 °C 29.4in /  994.1hPa SW 10.1mph /  16.3km/h 12.8mph /  20.6km/h 98% 0in /  0.0mm
21:56 41.2 °F /  5.1 °C 40.6 °F /  4.8 °C 29.4in /  994.1hPa WSW 10.5mph /  16.9km/h 12.8mph /  20.6km/h 98% 0in /  0.0mm
22:01 41.4 °F /  5.2 °C 40.8 °F /  4.9 °C 29.4in /  994.1hPa WSW 7.4mph /  11.9km/h 12.3mph /  19.8km/h 98% 0in /  0.0mm
22:06 41.4 °F /  5.2 °C 40.8 °F /  4.9 °C 29.4in /  994.1hPa WSW 9.8mph /  15.8km/h 12.3mph /  19.8km/h 98% 0in /  0.0mm
22:11 41.5 °F /  5.3 °C 41 °F /  5.0 °C 29.4in /  994.1hPa WSW 12.3mph /  19.8km/h 13.6mph /  21.9km/h 98% 0in /  0.0mm
22:16 41.7 °F /  5.4 °C 41.2 °F /  5.1 °C 29.4in /  994.1hPa WSW 10.5mph /  16.9km/h 13.6mph /  21.9km/h 98% 0in /  0.0mm
22:21 41.9 °F /  5.5 °C 41.4 °F /  5.2 °C 29.4in /  994.1hPa WSW 11mph /  17.7km/h 12.8mph /  20.6km/h 98% 0in /  0.0mm
22:26 42.1 °F /  5.6 °C 41.5 °F /  5.3 °C 29.4in /  994.1hPa WSW 8.7mph /  14.0km/h 12.8mph /  20.6km/h 98% 0in /  0.0mm
22:31 42.3 °F /  5.7 °C 41.7 °F /  5.4 °C 29.4in /  994.1hPa SSW 9.6mph /  15.4km/h 12.5mph /  20.1km/h 98% 0in /  0.0mm
22:36 42.3 °F /  5.7 °C 41.7 °F /  5.4 °C 29.4in /  994.1hPa WSW 8.7mph /  14.0km/h 12.5mph /  20.1km/h 98% 0in /  0.0mm
22:41 42.3 °F /  5.7 °C 41.7 °F /  5.4 °C 29.4in /  994.1hPa SW 7.6mph /  12.2km/h 12.1mph /  19.5km/h 98% 0in /  0.0mm
22:46 42.3 °F /  5.7 °C 41.7 °F /  5.4 °C 29.4in /  994.1hPa SSW 8.7mph /  14.0km/h 10.5mph /  16.9km/h 98% 0in /  0.0mm
22:51 42.3 °F /  5.7 °C 41.7 °F /  5.4 °C 29.4in /  994.1hPa SW 9.8mph /  15.8km/h 11.4mph /  18.3km/h 98% 0in /  0.0mm
22:56 42.4 °F /  5.8 °C 41.9 °F /  5.5 °C 29.4in /  994.1hPa SW 8.5mph /  13.7km/h 11.4mph /  18.3km/h 98% 0in /  0.0mm
23:01 42.4 °F /  5.8 °C 41.9 °F /  5.5 °C 29.4in /  994.1hPa WSW 13.2mph /  21.2km/h 13.2mph /  21.2km/h 98% 0in /  0.0mm
23:06 42.3 °F /  5.7 °C 41.7 °F /  5.4 °C 29.4in /  994.1hPa WSW 8.5mph /  13.7km/h 13.2mph /  21.2km/h 98% 0in /  0.0mm
23:11 42.3 °F /  5.7 °C 41.7 °F /  5.4 °C 29.4in /  994.1hPa WSW 12.5mph /  20.1km/h 14.8mph /  23.8km/h 98% 0in /  0.0mm
23:16 42.3 °F /  5.7 °C 41.7 °F /  5.4 °C 29.4in /  994.1hPa SW 7.6mph /  12.2km/h 14.8mph /  23.8km/h 98% 0in /  0.0mm
23:21 42.1 °F /  5.6 °C 41.5 °F /  5.3 °C 29.4in /  994.1hPa SW 12.5mph /  20.1km/h 12.5mph /  20.1km/h 98% 0in /  0.0mm
23:26 42.3 °F /  5.7 °C 41.7 °F /  5.4 °C 29.4in /  995.1hPa SW 12.3mph /  19.8km/h 14.5mph /  23.3km/h 98% 0in /  0.0mm
23:31 42.1 °F /  5.6 °C 41.5 °F /  5.3 °C 29.4in /  995.1hPa WSW 7.8mph /  12.6km/h 17.4mph /  28.0km/h 98% 0.01in /  0.3mm
23:36 42.3 °F /  5.7 °C 41.7 °F /  5.4 °C 29.4in /  995.1hPa WSW 13.2mph /  21.2km/h 17.4mph /  28.0km/h 98% 0.01in /  0.3mm
23:41 42.3 °F /  5.7 °C 41.7 °F /  5.4 °C 29.4in /  994.1hPa SSW 10.1mph /  16.3km/h 13.2mph /  21.2km/h 98% 0.01in /  0.3mm
23:46 42.3 °F /  5.7 °C 41.7 °F /  5.4 °C 29.4in /  994.1hPa SW 5.6mph /  9.0km/h 13.2mph /  21.2km/h 98% 0.01in /  0.3mm
23:51 42.4 °F /  5.8 °C 41.9 °F /  5.5 °C 29.4in /  994.1hPa SSW 10.3mph /  16.6km/h 11.9mph /  19.1km/h 98% 0.01in /  0.3mm
23:56 42.6 °F /  5.9 °C 41.7 °F /  5.4 °C 29.4in /  994.1hPa WSW 10.7mph /  17.2km/h 13mph /  20.9km/h 97% 0.01in /  0.3mm
Données Historique de Météo Turbie

Mise a jour : 22/05/2018 19:56:12
Généré par Cumulus 1.9.4 (1099)